Air Resources Laboratory banner image
Air Resources Laboratory web site National Oceanic and Atmospheric Administration (NOAA)

tx metar


KADS 161347Z 23005KT 13SM FEW200 BKN250 29/20 A2998=
KFWS 161346Z 21006KT 10SM CLR 30/20 A2999=